LTFJ/SAW METAR and TAF weather

Enter ICAO airport designator
Station Type Date Time Source
LTFJ METAR 2020/03/29 12:20 UTC NOAA

LTFJ 291220Z 25009KT 6000 -RA BKN012 BKN025 09/08 Q1008 NOSIG


Station Type Date Time Source
LTFJ Decoded METAR 2020/03/29 12:20 UTC NOAA

Istanbul / Sabiha Gokcen, Turkey (LTFJ) 40-53-55N 029-18-33E
Mar 29, 2020 - 08:20 AM EDT / 2020.03.29 1220 UTC
Wind: from the WSW (250 degrees) at 10 MPH (9 KT):0
Visibility: 3 mile(s):0
Sky conditions: mostly cloudy
Weather: light rain
Temperature: 48 F (9 C)
Dew Point: 46 F (8 C)
Relative Humidity: 93%
Pressure (altimeter): 29.77 in. Hg (1008 hPa)
ob: LTFJ 291220Z 25009KT 6000 -RA BKN012 BKN025 09/08 Q1008 NOSIG
cycle: 12

Station Type Date Time Source
LTFJ TAF 2020/03/29 12:03 UTC NOAA

TAF LTFJ 291040Z 2912/3012 27012KT 7000 -RA BKN012 BKN025
TEMPO 2912/2915 4000 RA BR
TEMPO 2918/2921 19012KT
BECMG 2920/2922 SCT012 BKN030 PROB30
TEMPO 3002/3005 4000 BR
BECMG 3008/3012 CAVOK

Example: see airport list